TimeMST,TemperatureF,Dew PointF,Humidity,Sea Level PressureIn,VisibilityMPH,Wind Direction,Wind SpeedMPH,Gust SpeedMPH,PrecipitationIn,Events,Conditions,WindDirDegrees,DateUTC
12:15 AM,10.4,8.6,92,30.61,7.0,Calm,Calm,-,N/A,,Clear,0,2013-01-17 07:15:00
12:35 AM,8.6,8.6,100,30.60,7.0,Calm,Calm,-,N/A,,Clear,0,2013-01-17 07:35:00
1:15 AM,8.6,6.8,92,30.61,5.0,Calm,Calm,-,N/A,,Clear,0,2013-01-17 08:15:00
1:35 AM,10.4,6.8,85,30.60,7.0,Calm,Calm,-,N/A,,Clear,0,2013-01-17 08:35:00
1:55 AM,8.6,6.8,92,30.60,7.0,Calm,Calm,-,N/A,,Clear,0,2013-01-17 08:55:00
2:15 AM,8.6,5.0,85,30.60,6.0,Calm,Calm,-,N/A,,Clear,0,2013-01-17 09:15:00
2:35 AM,6.8,6.8,100,30.61,5.0,Calm,Calm,-,N/A,,Clear,0,2013-01-17 09:35:00
2:55 AM,6.8,6.8,100,30.60,5.0,Calm,Calm,-,N/A,,Clear,0,2013-01-17 09:55:00
3:15 AM,6.8,3.2,85,30.60,5.0,Calm,Calm,-,N/A,,Clear,0,2013-01-17 10:15:00
3:35 AM,5.0,3.2,92,30.60,4.0,Calm,Calm,-,N/A,,Clear,0,2013-01-17 10:35:00
3:55 AM,6.8,5.0,92,30.60,5.0,Calm,Calm,-,N/A,,Clear,0,2013-01-17 10:55:00
4:15 AM,5.0,3.2,92,30.60,5.0,Calm,Calm,-,N/A,,Clear,0,2013-01-17 11:15:00
4:35 AM,5.0,3.2,92,30.60,5.0,Calm,Calm,-,N/A,,Clear,0,2013-01-17 11:35:00
4:55 AM,5.0,3.2,92,30.60,5.0,Calm,Calm,-,N/A,,Clear,0,2013-01-17 11:55:00
5:15 AM,5.0,1.4,85,30.60,3.0,Calm,Calm,-,N/A,,Clear,0,2013-01-17 12:15:00
5:35 AM,3.2,-0.4,85,30.60,7.0,Calm,Calm,-,N/A,,Clear,0,2013-01-17 12:35:00
5:55 AM,3.2,1.4,92,30.60,4.0,Calm,Calm,-,N/A,,Clear,0,2013-01-17 12:55:00
6:15 AM,3.2,1.4,92,30.60,5.0,Calm,Calm,-,N/A,,Clear,0,2013-01-17 13:15:00
6:35 AM,3.2,1.4,92,30.60,5.0,Calm,Calm,-,N/A,,Clear,0,2013-01-17 13:35:00
6:50 AM,3.2,1.4,92,30.60,8.0,Calm,Calm,-,N/A,,Partly Cloudy,0,2013-01-17 13:50:00
7:50 AM,3.2,-0.4,85,30.63,6.0,Calm,Calm,-,N/A,,Haze,0,2013-01-17 14:50:00
9:50 AM,8.6,6.8,92,30.66,5.0,Calm,Calm,-,N/A,,Haze,0,2013-01-17 16:50:00
11:47 AM,10.4,8.6,92,30.62,5.0,Calm,Calm,-,N/A,,Haze,0,2013-01-17 18:47:00
12:50 PM,15.8,10.4,79,30.57,5.0,Calm,Calm,-,N/A,,Haze,0,2013-01-17 19:50:00
1:50 PM,17.6,12.2,79,30.56,5.0,Calm,Calm,-,N/A,,Haze,0,2013-01-17 20:50:00
2:59 PM,17.6,12.2,79,30.54,6.0,Calm,Calm,-,N/A,,Haze,0,2013-01-17 21:59:00
4:47 PM,15.8,12.2,86,30.54,5.0,Calm,Calm,-,N/A,,Haze,0,2013-01-17 23:47:00
5:47 PM,14.0,10.4,86,30.53,5.0,North,-9999.0,-,N/A,,Haze,0,2013-01-18 00:47:00
6:58 PM,12.2,10.4,92,30.53,5.0,Calm,Calm,-,N/A,,Haze,0,2013-01-18 01:58:00
7:47 PM,12.2,8.6,85,30.53,5.0,Calm,Calm,-,N/A,,Haze,0,2013-01-18 02:47:00
8:50 PM,10.4,8.6,92,30.52,5.0,Calm,Calm,-,N/A,,Haze,0,2013-01-18 03:50:00
9:15 PM,10.4,8.6,92,30.52,3.0,Calm,Calm,-,N/A,,Clear,0,2013-01-18 04:15:00
9:35 PM,8.6,5.0,85,30.52,3.0,Calm,Calm,-,N/A,,Clear,0,2013-01-18 04:35:00
9:55 PM,8.6,5.0,85,30.53,2.5,Calm,Calm,-,N/A,,Clear,0,2013-01-18 04:55:00
10:15 PM,8.6,6.8,92,30.53,2.5,Calm,Calm,-,N/A,,Clear,0,2013-01-18 05:15:00
10:35 PM,6.8,5.0,92,30.53,2.5,Calm,Calm,-,N/A,,Clear,0,2013-01-18 05:35:00
10:55 PM,6.8,5.0,92,30.53,2.5,Calm,Calm,-,N/A,,Clear,0,2013-01-18 05:55:00
11:15 PM,6.8,3.2,85,30.53,3.0,Calm,Calm,-,N/A,,Clear,0,2013-01-18 06:15:00
11:35 PM,5.0,1.4,85,30.53,3.0,Calm,Calm,-,N/A,,Clear,0,2013-01-18 06:35:00
11:55 PM,6.8,5.0,92,30.53,2.5,Calm,Calm,-,N/A,,Clear,0,2013-01-18 06:55:00